Map

Track Data

SID SEASON NUMBER BASIN SUBBASIN NAME ISO_TIME NATURE LAT LON WMO_WIND WMO_PRES WMO_AGENCY TRACK_TYPE DIST2LAND LANDFALL IFLAG USA_AGENCY USA_ATCF_ID USA_LAT USA_LON USA_RECORD USA_STATUS USA_WIND USA_PRES USA_SSHS USA_R34_NE USA_R34_SE USA_R34_SW USA_R34_NW USA_R50_NE USA_R50_SE USA_R50_SW USA_R50_NW USA_R64_NE USA_R64_SE USA_R64_SW USA_R64_NW USA_POCI USA_ROCI USA_RMW USA_EYE TOKYO_LAT TOKYO_LON TOKYO_GRADE TOKYO_WIND TOKYO_PRES TOKYO_R50_DIR TOKYO_R50_LONG TOKYO_R50_SHORT TOKYO_R30_DIR TOKYO_R30_LONG TOKYO_R30_SHORT TOKYO_LAND CMA_LAT CMA_LON CMA_CAT CMA_WIND CMA_PRES HKO_LAT HKO_LON HKO_CAT HKO_WIND HKO_PRES NEWDELHI_LAT NEWDELHI_LON NEWDELHI_GRADE NEWDELHI_WIND NEWDELHI_PRES NEWDELHI_CI NEWDELHI_DP NEWDELHI_POCI REUNION_LAT REUNION_LON REUNION_TYPE REUNION_WIND REUNION_PRES REUNION_TNUM REUNION_CI REUNION_RMW REUNION_R34_NE REUNION_R34_SE REUNION_R34_SW REUNION_R34_NW REUNION_R50_NE REUNION_R50_SE REUNION_R50_SW REUNION_R50_NW REUNION_R64_NE REUNION_R64_SE REUNION_R64_SW REUNION_R64_NW BOM_LAT BOM_LON BOM_TYPE BOM_WIND BOM_PRES BOM_TNUM BOM_CI BOM_RMW BOM_R34_NE BOM_R34_SE BOM_R34_SW BOM_R34_NW BOM_R50_NE BOM_R50_SE BOM_R50_SW BOM_R50_NW BOM_R64_NE BOM_R64_SE BOM_R64_SW BOM_R64_NW BOM_ROCI BOM_POCI BOM_EYE BOM_POS_METHOD BOM_PRES_METHOD NADI_LAT NADI_LON NADI_CAT NADI_WIND NADI_PRES WELLINGTON_LAT WELLINGTON_LON WELLINGTON_WIND WELLINGTON_PRES DS824_LAT DS824_LON DS824_STAGE DS824_WIND DS824_PRES TD9636_LAT TD9636_LON TD9636_STAGE TD9636_WIND TD9636_PRES TD9635_LAT TD9635_LON TD9635_WIND TD9635_PRES TD9635_ROCI NEUMANN_LAT NEUMANN_LON NEUMANN_CLASS NEUMANN_WIND NEUMANN_PRES MLC_LAT MLC_LON MLC_CLASS MLC_WIND MLC_PRES USA_GUST BOM_GUST BOM_GUST_PER REUNION_GUST REUNION_GUST_PER USA_SEAHGT USA_SEARAD_NE USA_SEARAD_SE USA_SEARAD_SW USA_SEARAD_NW STORM_SPEED STORM_DIR
1940186N07156 1940 31 WP MM NOT_NAMED 1940-07-04 09:00:00 NR 6.80000 155.700 main 1190 1175 __________O___ -1 6.80000 155.700 7 3 239
1940186N07156 1940 31 WP MM NOT_NAMED 1940-07-04 12:00:00 NR 6.72564 155.580 main 1175 1166 __________P___ -1 6.72564 155.580 7 3 256
1940186N07156 1940 31 WP MM NOT_NAMED 1940-07-04 15:00:00 NR 6.72109 155.389 main 1166 1161 __________P___ -1 6.72110 155.389 7 5 284
1940186N07156 1940 31 WP MM NOT_NAMED 1940-07-04 18:00:00 NR 6.85603 155.053 main 1172 1163 __________P___ -1 6.85603 155.053 7 10 298
1940186N07156 1940 31 WP MM NOT_NAMED 1940-07-04 21:00:00 NR 7.20000 154.500 main 1179 1179 __________O___ -1 7.20000 154.500 7 16 305
1940186N07156 1940 31 WP MM NOT_NAMED 1940-07-05 00:00:00 NR 7.78711 153.692 main 1217 1214 __________P___ -1 7.78711 153.692 7 22 307
1940186N07156 1940 31 WP MM NOT_NAMED 1940-07-05 03:00:00 NR 8.51046 152.740 main 1270 1270 __________P___ -1 8.51046 152.740 7 24 307
1940186N07156 1940 31 WP MM NOT_NAMED 1940-07-05 06:00:00 NR 9.22823 151.792 main 1337 1337 __________P___ -1 9.22823 151.792 7 22 307
1940186N07156 1940 31 WP MM NOT_NAMED 1940-07-05 09:00:00 NR 9.80000 151.000 main 1391 1388 __________O___ -1 9.80000 151.000 4 14 305
1940186N07156 1940 31 WP MM NOT_NAMED 1940-07-05 12:00:00 NR 10.0549 150.593 main 1412 1406 __________P___ -1 10.0549 150.593 4 7 299
1940186N07156 1940 31 WP MM NOT_NAMED 1940-07-05 15:00:00 NR 10.1505 150.356 main 1417 1401 __________P___ -1 10.1505 150.356 4 4 283
1940186N07156 1940 31 WP MM NOT_NAMED 1940-07-05 18:00:00 NR 10.1459 150.191 main 1401 1397 __________P___ -1 10.1459 150.191 4 4 262
1940186N07156 1940 31 WP MM NOT_NAMED 1940-07-05 21:00:00 NR 10.1000 150.000 main 1397 1390 __________O___ -1 10.1000 150.000 4 5 261
1940186N07156 1940 31 WP MM NOT_NAMED 1940-07-06 00:00:00 NR 10.0591 149.647 main 1388 1372 __________P___ -1 10.0591 149.647 4 7 262
1940186N07156 1940 31 WP MM NOT_NAMED 1940-07-06 03:00:00 NR 9.99754 149.252 main 1372 1365 __________P___ -1 9.99754 149.252 4 8 263
1940186N07156 1940 31 WP MM NOT_NAMED 1940-07-06 06:00:00 NR 9.96218 148.831 main 1364 1360 __________P___ -1 9.96218 148.831 4 8 270
1940186N07156 1940 31 WP MM NOT_NAMED 1940-07-06 09:00:00 NR 10.0000 148.400 main 1360 1359 __________O___ -1 10.0000 148.400 4 9 289
1940186N07156 1940 31 WP MM NOT_NAMED 1940-07-06 12:00:00 NR 10.2521 147.979 main 1391 1390 __________P___ -1 10.2521 147.979 4 10 304
1940186N07156 1940 31 WP MM NOT_NAMED 1940-07-06 15:00:00 NR 10.5674 147.552 main 1423 1423 __________P___ -1 10.5674 147.552 4 10 305
1940186N07156 1940 31 WP MM NOT_NAMED 1940-07-06 18:00:00 NR 10.8490 147.123 main 1445 1445 __________P___ -1 10.8490 147.123 4 9 297
1940186N07156 1940 31 WP MM NOT_NAMED 1940-07-06 21:00:00 NR 11.0000 146.700 main 1467 1445 __________O___ -1 11.0000 146.700 4 8 267
1940186N07156 1940 31 WP MM NOT_NAMED 1940-07-07 00:00:00 NR 10.8123 146.295 main 1445 1413 __________P___ -1 10.8123 146.295 4 9 238
1940186N07156 1940 31 WP MM NOT_NAMED 1940-07-07 03:00:00 NR 10.4997 145.898 main 1413 1382 __________P___ -1 10.4997 145.898 4 10 231
1940186N07156 1940 31 WP MM NOT_NAMED 1940-07-07 06:00:00 NR 10.1873 145.502 main 1383 1363 __________P___ -1 10.1873 145.502 4 9 238
1940186N07156 1940 31 WP MM NOT_NAMED 1940-07-07 09:00:00 NR 10.0000 145.100 main 1365 1365 __________O___ -1 10.0000 145.100 4 9 265
1940186N07156 1940 31 WP MM NOT_NAMED 1940-07-07 12:00:00 NR 10.1064 144.643 main 1384 1384 __________P___ -1 10.1064 144.643 4 10 291
1940186N07156 1940 31 WP MM NOT_NAMED 1940-07-07 15:00:00 NR 10.3503 144.184 main 1425 1425 __________P___ -1 10.3503 144.184 4 10 303
1940186N07156 1940 31 WP MM NOT_NAMED 1940-07-07 18:00:00 NR 10.6690 143.758 main 1467 1467 __________P___ -1 10.6690 143.758 4 10 310
1940186N07156 1940 31 WP MM NOT_NAMED 1940-07-07 21:00:00 NR 11.0000 143.400 main 1509 1509 __________O___ -1 11.0000 143.400 4 8 316
1940186N07156 1940 31 WP MM NOT_NAMED 1940-07-08 00:00:00 NR 11.2617 143.173 main 1547 1543 __________P___ -1 11.2617 143.173 4 6 324
1940186N07156 1940 31 WP MM NOT_NAMED 1940-07-08 03:00:00 NR 11.5219 143.012 main 1560 1560 __________P___ -1 11.5219 143.012 4 6 330
1940186N07156 1940 31 WP MM NOT_NAMED 1940-07-08 06:00:00 NR 11.7711 142.870 main 1588 1585 __________P___ -1 11.7711 142.870 4 6 327
1940186N07156 1940 31 WP MM NOT_NAMED 1940-07-08 09:00:00 NR 12.0000 142.700 main 1602 1602 __________O___ -1 12.0000 142.700 4 6 316
1940186N07156 1940 31 WP MM NOT_NAMED 1940-07-08 12:00:00 NR 12.1760 142.472 main 1617 1614 __________P___ -1 12.1760 142.472 4 6 305
1940186N07156 1940 31 WP MM NOT_NAMED 1940-07-08 15:00:00 NR 12.3345 142.204 main 1618 1618 __________P___ -1 12.3345 142.204 4 7 300
1940186N07156 1940 31 WP MM NOT_NAMED 1940-07-08 18:00:00 NR 12.5008 141.884 main 1630 1626 __________P___ -1 12.5008 141.884 4 8 298
1940186N07156 1940 31 WP MM NOT_NAMED 1940-07-08 21:00:00 NR 12.7000 141.500 main 1634 1629 __________O___ -1 12.7000 141.500 4 9 300
1940186N07156 1940 31 WP MM NOT_NAMED 1940-07-09 00:00:00 NR 12.9682 141.048 main 1645 1628 __________P___ -1 12.9682 141.048 4 11 301
1940186N07156 1940 31 WP MM NOT_NAMED 1940-07-09 03:00:00 NR 13.2701 140.533 main 1619 1570 __________P___ -1 13.2701 140.533 4 12 301
1940186N07156 1940 31 WP MM NOT_NAMED 1940-07-09 06:00:00 NR 13.5869 139.976 main 1570 1512 __________P___ -1 13.5869 139.976 4 13 300
1940186N07156 1940 31 WP MM NOT_NAMED 1940-07-09 09:00:00 NR 13.9000 139.400 main 1512 1456 __________O___ -1 13.9000 139.400 4 13 299
1940186N07156 1940 31 WP MM NOT_NAMED 1940-07-09 12:00:00 NR 14.2067 138.815 main 1456 1409 __________P___ -1 14.2067 138.815 4 13 298
1940186N07156 1940 31 WP MM NOT_NAMED 1940-07-09 15:00:00 NR 14.5027 138.220 main 1398 1349 __________P___ -1 14.5027 138.220 4 13 296
1940186N07156 1940 31 WP MM NOT_NAMED 1940-07-09 18:00:00 NR 14.7724 137.640 main 1340 1292 __________P___ -1 14.7724 137.640 4 12 295
1940186N07156 1940 31 WP MM NOT_NAMED 1940-07-09 21:00:00 NR 15.0000 137.100 main 1292 1253 __________O___ -1 15.0000 137.100 4 10 293
1940186N07156 1940 31 WP MM NOT_NAMED 1940-07-10 00:00:00 NR 15.1626 136.680 main 1256 1217 __________P___ -1 15.1626 136.680 4 8 290
1940186N07156 1940 31 WP MM NOT_NAMED 1940-07-10 03:00:00 NR 15.2853 136.293 main 1217 1179 __________P___ -1 15.2853 136.293 4 8 287
1940186N07156 1940 31 WP MM NOT_NAMED 1940-07-10 06:00:00 NR 15.3905 135.886 main 1179 1131 __________P___ -1 15.3905 135.886 4 9 284
1940186N07156 1940 31 WP MM NOT_NAMED 1940-07-10 09:00:00 NR 15.5000 135.400 main 1131 1073 __________O___ -1 15.5000 135.400 4 11 281
1940186N07156 1940 31 WP MM NOT_NAMED 1940-07-10 12:00:00 NR 15.6155 134.732 main 1063 997 __________P___ -1 15.6155 134.732 4 14 280
1940186N07156 1940 31 WP MM NOT_NAMED 1940-07-10 15:00:00 NR 15.7416 133.987 main 997 938 __________P___ -1 15.7416 133.987 4 15 281
1940186N07156 1940 31 WP MM NOT_NAMED 1940-07-10 18:00:00 NR 15.8967 133.223 main 928 872 __________P___ -1 15.8967 133.223 4 15 284
1940186N07156 1940 31 WP MM NOT_NAMED 1940-07-10 21:00:00 NR 16.1000 132.500 main 872 828 __________O___ -1 16.1000 132.500 4 13 287
1940186N07156 1940 31 WP MM NOT_NAMED 1940-07-11 00:00:00 NR 16.2924 131.898 main 828 797 __________P___ -1 16.2924 131.898 4 12 292
1940186N07156 1940 31 WP MM NOT_NAMED 1940-07-11 03:00:00 NR 16.5463 131.344 main 788 764 __________P___ -1 16.5463 131.344 4 12 301
1940186N07156 1940 31 WP MM NOT_NAMED 1940-07-11 06:00:00 NR 16.9020 130.819 main 764 743 __________P___ -1 16.9020 130.819 4 13 310
1940186N07156 1940 31 WP MM NOT_NAMED 1940-07-11 09:00:00 NR 17.4000 130.300 main 743 729 __________O___ -1 17.4000 130.300 4 17 318
1940186N07156 1940 31 WP MM NOT_NAMED 1940-07-11 12:00:00 NR 18.1388 129.669 main 736 718 __________P___ -1 18.1388 129.669 4 20 323
1940186N07156 1940 31 WP MM NOT_NAMED 1940-07-11 15:00:00 NR 19.0063 129.049 main 708 669 __________P___ -1 19.0063 129.049 4 21 328
1940186N07156 1940 31 WP MM NOT_NAMED 1940-07-11 18:00:00 NR 19.8954 128.504 main 672 655 __________P___ -1 19.8954 128.504 4 19 332
1940186N07156 1940 31 WP MM NOT_NAMED 1940-07-11 21:00:00 NR 20.7000 128.100 main 659 654 __________O___ -1 20.7000 128.100 4 15 339
1940186N07156 1940 31 WP MM NOT_NAMED 1940-07-12 00:00:00 NR 21.2499 127.936 main 664 664 __________P___ -1 21.2499 127.936 4 10 350
1940186N07156 1940 31 WP MM NOT_NAMED 1940-07-12 03:00:00 NR 21.7085 127.917 main 686 673 __________P___ -1 21.7085 127.917 4 9 1
1940186N07156 1940 31 WP MM NOT_NAMED 1940-07-12 06:00:00 NR 22.1379 127.965 main 677 656 __________P___ -1 22.1379 127.965 4 9 5
1940186N07156 1940 31 WP MM NOT_NAMED 1940-07-12 09:00:00 NR 22.6000 128.000 main 656 626 __________O___ -1 22.6000 128.000 4 11 357
1940186N07156 1940 31 WP MM NOT_NAMED 1940-07-12 12:00:00 NR 23.2265 127.908 main 626 599 __________P___ -1 23.2265 127.908 4 13 351
1940186N07156 1940 31 WP MM NOT_NAMED 1940-07-12 15:00:00 NR 23.8875 127.788 main 599 577 __________P___ -1 23.8875 127.788 4 13 350
1940186N07156 1940 31 WP MM NOT_NAMED 1940-07-12 18:00:00 NR 24.5297 127.649 main 567 553 __________P___ -1 24.5297 127.649 4 12 348
1940186N07156 1940 31 WP MM NOT_NAMED 1940-07-12 21:00:00 NR 25.1000 127.500 main 553 544 __________O___ -1 25.1000 127.500 4 10 345
1940186N07156 1940 31 WP MM NOT_NAMED 1940-07-13 00:00:00 NR 25.4964 127.364 main 545 529 __________P___ -1 25.4964 127.364 4 8 341
1940186N07156 1940 31 WP MM NOT_NAMED 1940-07-13 03:00:00 NR 25.8223 127.221 main 529 523 __________P___ -1 25.8223 127.221 4 7 337
1940186N07156 1940 31 WP MM NOT_NAMED 1940-07-13 06:00:00 NR 26.1370 127.067 main 525 514 __________P___ -1 26.1370 127.067 4 7 337
1940186N07156 1940 31 WP MM NOT_NAMED 1940-07-13 09:00:00 NR 26.5000 126.900 main 518 512 __________O___ -1 26.5000 126.900 4 9 339
1940186N07156 1940 31 WP MM NOT_NAMED 1940-07-13 12:00:00 NR 27.0049 126.691 main 519 478 __________P___ -1 27.0049 126.691 4 11 340
1940186N07156 1940 31 WP MM NOT_NAMED 1940-07-13 15:00:00 NR 27.5628 126.472 main 474 436 __________P___ -1 27.5628 126.472 4 12 342
1940186N07156 1940 31 WP MM NOT_NAMED 1940-07-13 18:00:00 NR 28.1393 126.266 main 436 402 __________P___ -1 28.1393 126.266 4 12 344
1940186N07156 1940 31 WP MM NOT_NAMED 1940-07-13 21:00:00 NR 28.7000 126.100 main 402 378 __________O___ -1 28.7000 126.100 4 11 343
1940186N07156 1940 31 WP MM NOT_NAMED 1940-07-14 00:00:00 NR 29.1511 125.912 main 378 368 __________P___ -1 29.1511 125.912 4 9 343
1940186N07156 1940 31 WP MM NOT_NAMED 1940-07-14 03:00:00 NR 29.5885 125.781 main 370 360 __________P___ -1 29.5885 125.781 4 9 352
1940186N07156 1940 31 WP MM NOT_NAMED 1940-07-14 06:00:00 NR 30.0567 125.758 main 349 292 __________P___ -1 30.0567 125.758 4 10 6
1940186N07156 1940 31 WP MM NOT_NAMED 1940-07-14 09:00:00 NR 30.6000 125.900 main 292 223 __________O___ -1 30.6000 125.900 7 13 18
1940186N07156 1940 31 WP MM NOT_NAMED 1940-07-14 12:00:00 NR 31.2580 126.214 main 212 134 __________P___ -1 31.2580 126.214 7 16 26
1940186N07156 1940 31 WP MM NOT_NAMED 1940-07-14 15:00:00 NR 31.9935 126.703 main 134 81 __________P___ -1 31.9935 126.703 7 18 32
1940186N07156 1940 31 WP MM NOT_NAMED 1940-07-14 18:00:00 NR 32.7822 127.341 main 72 71 __________P___ -1 32.7822 127.341 7 20 36
1940186N07156 1940 31 WP MM NOT_NAMED 1940-07-14 21:00:00 NR 33.6000 128.100 main 111 66 __________O___ -1 33.6000 128.100 7 20 40
1940186N07156 1940 31 WP MM NOT_NAMED 1940-07-15 00:00:00 NR 34.3432 128.915 main 72 42 __________P___ -1 34.3432 128.915 7 21 43
1940186N07156 1940 31 WP MM NOT_NAMED 1940-07-15 03:00:00 NR 35.1155 129.842 main 49 49 __________P___ -1 35.1155 129.842 7 23 44
1940186N07156 1940 31 WP MM NOT_NAMED 1940-07-15 06:00:00 NR 35.9548 130.847 main 107 107 __________P___ -1 35.9548 130.847 7 24 43
1940186N07156 1940 31 WP MM NOT_NAMED 1940-07-15 09:00:00 NR 36.9000 131.900 main 178 178 __________O___ -1 36.9000 131.900 7 27 38
1940186N07156 1940 31 WP MM NOT_NAMED 1940-07-15 12:00:00 NR 38.0886 132.967 main 289 289 __________P___ -1 38.0886 132.967 7 30 35
1940186N07156 1940 31 WP MM NOT_NAMED 1940-07-15 15:00:00 NR 39.3665 134.087 main 323 280 __________P___ -1 39.3665 134.087 7 31 35
1940186N07156 1940 31 WP MM NOT_NAMED 1940-07-15 18:00:00 NR 40.6109 135.241 main 274 232 __________P___ -1 40.6109 135.241 7 29 37
1940186N07156 1940 31 WP MM NOT_NAMED 1940-07-15 21:00:00 NR 41.7000 136.400 main 226 196 __________O___ -1 41.7000 136.400 7 25 41
1940186N07156 1940 31 WP MM NOT_NAMED 1940-07-16 00:00:00 NR 42.4861 137.445 main 196 122 __________P___ -1 42.4861 137.445 7 21 47
1940186N07156 1940 31 WP MM NOT_NAMED 1940-07-16 03:00:00 NR 43.1088 138.480 main 119 72 __________P___ -1 43.1088 138.480 7 19 54
1940186N07156 1940 31 WP MM NOT_NAMED 1940-07-16 06:00:00 NR 43.6279 139.574 main 65 57 __________P___ -1 43.6279 139.574 7 19 59
1940186N07156 1940 31 WP MM NOT_NAMED 1940-07-16 09:00:00 NR 44.1000 140.800 main 59 0 __________O___ -1 44.1000 140.800 7 23 64
1940186N07156 1940 31 WP MM NOT_NAMED 1940-07-16 12:00:00 NR 44.6153 142.416 main 0 0 __________P___ -1 44.6153 142.416 7 26 68
1940186N07156 1940 31 WP MM NOT_NAMED 1940-07-16 15:00:00 NR 45.0809 144.156 main 104 104 __________P___ -1 45.0809 144.156 7 26 70
1940186N07156 1940 31 WP MM NOT_NAMED 1940-07-16 18:00:00 NR 45.5035 145.844 main 124 83 __________P___ -1 45.5035 145.844 7 23 70
1940186N07156 1940 31 WP MM NOT_NAMED 1940-07-16 21:00:00 NR 45.9000 147.300 main 81 77 __________O___ -1 45.9000 147.300 7 19 66
1940186N07156 1940 31 WP MM NOT_NAMED 1940-07-17 00:00:00 NR 46.2922 148.389 main 101 94 __________P___ -1 46.2922 148.389 7 15 59
1940186N07156 1940 31 WP MM NOT_NAMED 1940-07-17 03:00:00 NR 46.6895 149.166 main 98 98 __________P___ -1 46.6895 149.166 7 12 49
1940186N07156 1940 31 WP MM NOT_NAMED 1940-07-17 06:00:00 NR 47.0930 149.734 main 117 115 __________P___ -1 47.0930 149.734 7 11 41
1940186N07156 1940 31 WP MM NOT_NAMED 1940-07-17 09:00:00 NR 47.5000 150.200 main 155 __________O___ -1 47.5000 150.200 7 10 38

Digital Typhoon Data and Search

About IBTrACS Database

This database is a web-friendly format of International Best Track Archive for Climate Stewardship (IBTrACS), a global best track data archive curated by NOAA dating back to 1842.

Updated: 2021-12-03